Time;durP1;ratioP1;P1;durP2;ratioP2;P2;SDS_P1;SDS_P2;PMS_P1;PMS_P2;Temp;Humidity;BMP_temperature;BMP_pressure;BME280_temperature;BME280_humidity;BME280_pressure;Samples;Min_cycle;Max_cycle;Signal;HPM_P1;HPM_P2
2023/05/05 00:00:04;;;;;;;;;;;;;;;11.52;50.26;98105.00;5105900;28;19920;-66
2023/05/05 00:02:53;;;;;;;;;;;;;;;11.52;50.49;98106.94;5099137;28;19927;-66
2023/05/05 00:05:41;;;;;;;;;;;;;;;11.48;50.61;98104.03;5094933;28;19946;-65
2023/05/05 00:08:29;;;;;;;;;;;;;;;11.40;50.69;98102.06;5103080;28;19955;-65
2023/05/05 00:11:17;;;;;;;;;;;;;;;11.32;50.99;98100.09;5099925;28;19928;-65
2023/05/05 00:14:07;;;;;;;;;;;;;;;11.28;51.26;98105.34;5103910;28;19919;-64
2023/05/05 00:16:55;;;;;;;;;;;;;;;11.26;51.27;98095.91;5102508;28;19927;-65
2023/05/05 00:19:43;;;;;;;;;;;;;;;11.23;51.38;98089.16;5094710;28;19920;-64
2023/05/05 00:22:32;;;;;;;;;;;;;;;11.16;51.69;98086.06;5103898;28;20008;-64
2023/05/05 00:25:20;;;;;;;;;;;;;;;11.10;51.89;98102.84;5104040;28;19924;-64
2023/05/05 00:28:08;;;;;;;;;;;;;;;11.06;51.98;98108.09;5104967;28;19965;-65
2023/05/05 00:30:58;;;;;;;;;;;;;;;11.01;52.15;98100.03;5103093;28;20317;-64
2023/05/05 00:33:49;;;;;;;;;;;;;;;11.09;52.17;98103.97;5078526;28;19972;-65
2023/05/05 00:36:37;;;;;;;;;;;;;;;10.99;52.20;98091.41;5097648;28;19924;-64
2023/05/05 00:39:26;;;;;;;;;;;;;;;11.04;52.58;98101.38;5099174;28;19930;-64
2023/05/05 00:42:13;;;;;;;;;;;;;;;11.00;52.81;98101.97;5096363;28;19919;-64
2023/05/05 00:45:03;;;;;;;;;;;;;;;11.01;52.86;98097.31;5108358;27;19931;-65
2023/05/05 00:47:53;;;;;;;;;;;;;;;11.05;52.83;98097.53;5112192;27;19924;-65
2023/05/05 00:50:44;;;;;;;;;;;;;;;11.06;52.90;98086.34;5098814;28;19920;-64
2023/05/05 00:53:32;;;;;;;;;;;;;;;11.05;52.91;98076.56;5080525;28;19924;-64
2023/05/05 00:56:22;;;;;;;;;;;;;;;10.98;53.02;98081.66;5103365;28;19926;-64
2023/05/05 00:59:10;;;;;;;;;;;;;;;10.90;53.48;98083.19;5102247;28;19932;-64
2023/05/05 01:01:58;;;;;;;;;;;;;;;10.91;53.50;98073.91;5104213;28;19920;-65
2023/05/05 01:04:51;;;;;;;;;;;;;;;10.84;53.50;98068.13;5087703;28;19965;-65
2023/05/05 01:07:42;;;;;;;;;;;;;;;10.84;53.69;98065.41;5088116;28;19927;-65
2023/05/05 01:10:33;;;;;;;;;;;;;;;10.84;53.65;98059.97;5102102;28;19926;-64
2023/05/05 01:13:25;;;;;;;;;;;;;;;10.83;53.64;98063.78;5102589;28;19944;-64
2023/05/05 01:16:14;;;;;;;;;;;;;;;10.86;53.57;98067.78;5088773;28;20104;-66
2023/05/05 01:19:05;;;;;;;;;;;;;;;10.83;53.50;98071.94;5101651;27;20450;-65
2023/05/05 01:21:56;;;;;;;;;;;;;;;10.87;53.47;98075.66;5090077;28;19997;-64
2023/05/05 01:24:46;;;;;;;;;;;;;;;10.83;53.50;98071.94;5076503;28;19967;-65
2023/05/05 01:27:41;;;;;;;;;;;;;;;10.81;53.55;98068.72;5077714;28;20050;-64
2023/05/05 01:30:36;;;;;;;;;;;;;;;10.75;54.01;98059.09;5072558;28;19931;-65
2023/05/05 01:33:27;;;;;;;;;;;;;;;10.68;54.17;98053.28;5076237;28;19931;-64
2023/05/05 01:36:31;;;;;;;;;;;;;;;10.67;54.17;98057.13;5066728;28;19921;-64
2023/05/05 01:39:20;;;;;;;;;;;;;;;10.63;54.21;98058.84;5070457;28;19974;-64
2023/05/05 01:42:09;;;;;;;;;;;;;;;10.63;54.38;98053.41;5080676;28;20541;-64
2023/05/05 01:44:57;;;;;;;;;;;;;;;10.61;54.47;98066.50;5067226;28;20010;-65
2023/05/05 01:47:45;;;;;;;;;;;;;;;10.61;54.35;98063.78;5066940;28;19940;-65
2023/05/05 01:50:35;;;;;;;;;;;;;;;10.60;54.56;98056.72;5078494;28;19927;-63
2023/05/05 01:53:23;;;;;;;;;;;;;;;10.52;54.55;98061.00;5097736;28;19920;-65
2023/05/05 01:56:11;;;;;;;;;;;;;;;10.49;55.00;98051.56;5085990;28;19921;-65
2023/05/05 01:59:00;;;;;;;;;;;;;;;10.50;55.17;98055.06;5082485;28;19970;-66
2023/05/05 02:01:49;;;;;;;;;;;;;;;10.45;55.48;98055.19;5074051;28;20481;-65
2023/05/05 02:04:39;;;;;;;;;;;;;;;10.39;55.39;98046.34;5093834;28;19928;-64
2023/05/05 02:07:29;;;;;;;;;;;;;;;10.41;55.28;98054.19;5093209;28;19928;-65
2023/05/05 02:10:17;;;;;;;;;;;;;;;10.35;55.69;98050.78;5067460;28;19924;-65
2023/05/05 02:13:05;;;;;;;;;;;;;;;10.33;55.68;98053.00;5081992;28;19927;-65
2023/05/05 02:15:53;;;;;;;;;;;;;;;10.32;55.63;98056.81;5065334;28;19928;-66
2023/05/05 02:18:41;;;;;;;;;;;;;;;10.26;55.98;98052.63;5067014;28;19920;-66
2023/05/05 02:21:30;;;;;;;;;;;;;;;10.27;55.79;98059.66;5066204;28;19959;-64
2023/05/05 02:24:20;;;;;;;;;;;;;;;10.28;55.65;98058.56;5056385;28;20445;-64
2023/05/05 02:27:09;;;;;;;;;;;;;;;10.31;55.39;98071.50;5066541;28;19924;-65
2023/05/05 02:29:57;;;;;;;;;;;;;;;10.37;55.21;98061.34;5073262;28;20081;-65
2023/05/05 02:32:46;;;;;;;;;;;;;;;10.37;55.10;98075.72;5056236;28;20431;-66
2023/05/05 02:35:34;;;;;;;;;;;;;;;10.28;55.41;98066.72;5082559;28;20500;-65
2023/05/05 02:38:24;;;;;;;;;;;;;;;10.30;55.91;98061.75;5068537;28;20442;-65
2023/05/05 02:41:16;;;;;;;;;;;;;;;10.32;55.56;98056.81;5085653;28;20415;-64
2023/05/05 02:44:05;;;;;;;;;;;;;;;10.34;55.83;98060.06;5086902;28;19974;-66
2023/05/05 02:46:54;;;;;;;;;;;;;;;10.32;55.73;98045.16;5084623;28;19924;-66
2023/05/05 02:49:43;;;;;;;;;;;;;;;10.29;55.94;98054.72;5076705;28;19951;-65
2023/05/05 02:52:32;;;;;;;;;;;;;;;10.30;55.84;98053.63;5085262;28;19920;-66
2023/05/05 02:55:20;;;;;;;;;;;;;;;10.25;55.71;98034.72;5085800;28;19928;-66
2023/05/05 02:58:11;;;;;;;;;;;;;;;10.34;55.49;98051.91;5068953;28;19935;-64
2023/05/05 03:01:10;;;;;;;;;;;;;;;10.38;55.83;98060.22;5100071;28;19966;-66
2023/05/05 03:04:00;;;;;;;;;;;;;;;10.37;55.63;98048.56;5080396;28;20031;-64
2023/05/05 03:06:48;;;;;;;;;;;;;;;10.36;55.71;98046.16;5073348;28;19924;-66
2023/05/05 03:09:41;;;;;;;;;;;;;;;10.37;55.61;98047.75;5071700;28;20434;-65
2023/05/05 03:12:30;;;;;;;;;;;;;;;10.35;55.77;98050.78;5071161;28;19931;-65
2023/05/05 03:15:32;;;;;;;;;;;;;;;10.26;55.84;98052.63;5091455;28;20513;-66
2023/05/05 03:18:22;;;;;;;;;;;;;;;10.24;56.04;98063.00;5074833;28;19934;-66
2023/05/05 03:21:17;;;;;;;;;;;;;;;10.21;56.12;98049.97;5068098;28;20053;-64
2023/05/05 03:24:11;;;;;;;;;;;;;;;10.19;56.14;98042.16;5071196;28;19926;-66
2023/05/05 03:27:01;;;;;;;;;;;;;;;10.18;56.35;98034.31;5067842;28;20011;-65
2023/05/05 03:29:55;;;;;;;;;;;;;;;10.17;56.62;98038.94;5071355;28;19955;-65
2023/05/05 03:32:46;;;;;;;;;;;;;;;10.15;56.59;98037.63;5090894;28;20291;-65
2023/05/05 03:35:35;;;;;;;;;;;;;;;10.15;56.63;98045.78;5080222;28;19934;-65
2023/05/05 03:38:23;;;;;;;;;;;;;;;10.15;56.84;98045.78;5069992;28;20472;-65
2023/05/05 03:41:11;;;;;;;;;;;;;;;10.13;56.84;98053.44;5069714;28;19930;-65
2023/05/05 03:43:59;;;;;;;;;;;;;;;10.20;56.55;98049.19;5096439;28;19981;-65
2023/05/05 03:46:47;;;;;;;;;;;;;;;10.17;57.12;98040.84;5052289;28;20106;-65
2023/05/05 03:49:38;;;;;;;;;;;;;;;10.12;57.21;98043.66;5060093;28;20457;-64
2023/05/05 03:52:28;;;;;;;;;;;;;;;10.09;57.43;98044.28;5058508;28;19939;-66
2023/05/05 03:55:16;;;;;;;;;;;;;;;10.07;57.36;98043.78;5080747;28;19939;-65
2023/05/05 03:58:04;;;;;;;;;;;;;;;10.03;57.29;98051.72;5065035;28;19924;-65
2023/05/05 04:00:52;;;;;;;;;;;;;;;9.95;57.57;98047.00;5076911;28;20041;-65
2023/05/05 04:03:41;;;;;;;;;;;;;;;9.97;57.53;98045.63;5062254;28;19995;-66
2023/05/05 04:06:31;;;;;;;;;;;;;;;10.02;57.26;98046.63;5073635;28;19954;-65
2023/05/05 04:09:22;;;;;;;;;;;;;;;10.02;57.31;98042.00;5089037;28;19954;-65
2023/05/05 04:12:11;;;;;;;;;;;;;;;10.05;57.20;98052.22;5069194;28;20412;-65
2023/05/05 04:15:00;;;;;;;;;;;;;;;10.09;57.26;98057.84;5098565;28;19945;-65
2023/05/05 04:17:48;;;;;;;;;;;;;;;10.14;57.16;98055.03;5097755;28;20032;-63
2023/05/05 04:20:37;;;;;;;;;;;;;;;10.21;57.16;98060.84;5048232;28;19963;-63
2023/05/05 04:23:27;;;;;;;;;;;;;;;10.22;57.32;98065.16;5065659;28;19955;-64
2023/05/05 04:26:15;;;;;;;;;;;;;;;10.33;57.04;98065.75;5059551;28;19954;-65
2023/05/05 04:29:03;;;;;;;;;;;;;;;10.40;56.85;98064.25;5078103;28;20031;-66
2023/05/05 04:31:52;;;;;;;;;;;;;;;10.47;56.71;98055.69;5044694;28;19977;-65
2023/05/05 04:34:41;;;;;;;;;;;;;;;10.58;56.02;98064.41;5042701;28;19994;-65
2023/05/05 04:37:29;;;;;;;;;;;;;;;10.59;56.07;98058.66;5038669;28;19945;-65
2023/05/05 04:40:20;;;;;;;;;;;;;;;10.57;55.98;98054.66;5057781;28;20380;-64
2023/05/05 04:43:09;;;;;;;;;;;;;;;10.52;55.85;98054.75;5060638;28;19935;-66
2023/05/05 04:45:57;;;;;;;;;;;;;;;10.49;56.23;98058.88;5049276;28;19950;-65
2023/05/05 04:48:50;;;;;;;;;;;;;;;10.50;56.13;98063.22;5061005;28;20693;-66
2023/05/05 04:51:40;;;;;;;;;;;;;;;10.66;55.79;98071.81;5053106;28;19920;-66
2023/05/05 04:54:28;;;;;;;;;;;;;;;10.63;55.77;98069.72;5047281;28;19924;-65
2023/05/05 04:57:19;;;;;;;;;;;;;;;10.63;55.32;98067.78;5049109;28;20023;-65
2023/05/05 05:00:08;;;;;;;;;;;;;;;10.78;55.15;98063.13;5049662;28;19920;-65
2023/05/05 05:02:56;;;;;;;;;;;;;;;10.77;55.16;98061.50;5048599;28;20532;-65
2023/05/05 05:05:45;;;;;;;;;;;;;;;10.78;55.20;98069.34;5049976;28;20025;-65
2023/05/05 05:08:33;;;;;;;;;;;;;;;10.78;55.22;98069.34;5063536;28;19931;-65
2023/05/05 05:11:21;;;;;;;;;;;;;;;10.91;54.88;98076.63;5046592;28;19982;-66
2023/05/05 05:14:10;;;;;;;;;;;;;;;11.02;54.47;98094.31;5048544;28;19939;-66
2023/05/05 05:16:59;;;;;;;;;;;;;;;11.09;54.46;98095.78;5068310;28;20007;-65
2023/05/05 05:19:47;;;;;;;;;;;;;;;11.18;54.20;98094.72;5074815;28;19978;-66
2023/05/05 05:22:37;;;;;;;;;;;;;;;11.23;53.29;98094.59;5077005;28;19942;-65
2023/05/05 05:25:29;;;;;;;;;;;;;;;11.33;53.25;98107.13;5048093;28;19970;-65
2023/05/05 05:28:17;;;;;;;;;;;;;;;11.44;51.80;98105.75;5047978;28;19942;-65
2023/05/05 05:31:12;;;;;;;;;;;;;;;11.59;50.64;98103.75;5072480;28;19943;-64
2023/05/05 05:34:00;;;;;;;;;;;;;;;11.74;50.58;98100.63;5061682;28;20108;-67
2023/05/05 05:36:48;;;;;;;;;;;;;;;12.18;49.99;98102.38;5048465;28;19935;-65
2023/05/05 05:39:37;;;;;;;;;;;;;;;12.34;49.23;98102.75;5048993;28;20331;-66
2023/05/05 05:42:26;;;;;;;;;;;;;;;12.33;47.61;98098.41;5045958;28;19931;-65
2023/05/05 05:45:15;;;;;;;;;;;;;;;12.29;48.42;98094.72;5048663;28;22196;-65
2023/05/05 05:48:05;;;;;;;;;;;;;;;12.21;48.18;98090.88;5036966;28;19970;-66
2023/05/05 05:50:53;;;;;;;;;;;;;;;12.18;48.67;98087.97;5046408;28;20019;-65
2023/05/05 05:53:43;;;;;;;;;;;;;;;12.27;48.64;98086.88;5048835;28;19976;-66
2023/05/05 05:56:31;;;;;;;;;;;;;;;12.36;48.73;98099.69;5047752;28;20037;-66
2023/05/05 05:59:19;;;;;;;;;;;;;;;12.53;48.55;98100.53;5047363;28;20434;-66
2023/05/05 06:02:08;;;;;;;;;;;;;;;12.68;47.83;98101.19;5048626;28;20069;-66
2023/05/05 06:04:58;;;;;;;;;;;;;;;12.85;47.18;98102.00;5041297;28;19934;-67
2023/05/05 06:07:46;;;;;;;;;;;;;;;13.02;47.50;98094.91;5073461;28;19927;-66
2023/05/05 06:10:35;;;;;;;;;;;;;;;13.15;47.62;98099.38;5047867;28;19927;-64
2023/05/05 06:13:28;;;;;;;;;;;;;;;13.31;46.36;98096.97;5048667;28;19935;-66
2023/05/05 06:16:17;;;;;;;;;;;;;;;13.53;46.73;98090.50;5050421;28;19986;-65
2023/05/05 06:19:09;;;;;;;;;;;;;;;13.75;45.28;98094.94;5058032;28;19990;-65
2023/05/05 06:21:59;;;;;;;;;;;;;;;14.02;44.36;98094.50;5077767;28;19925;-66
2023/05/05 06:24:48;;;;;;;;;;;;;;;14.31;43.22;98098.34;5063621;28;20400;-66
2023/05/05 06:27:38;;;;;;;;;;;;;;;14.42;42.60;98094.09;5064866;28;20354;-65
2023/05/05 06:30:26;;;;;;;;;;;;;;;14.52;43.08;98095.66;5060495;28;19981;-67
2023/05/05 06:33:14;;;;;;;;;;;;;;;14.57;41.70;98093.53;5070992;28;20564;-66
2023/05/05 06:36:02;;;;;;;;;;;;;;;14.63;41.77;98094.94;5049732;28;19962;-62
2023/05/05 06:38:52;;;;;;;;;;;;;;;14.83;42.04;98089.81;5070134;28;19958;-67
2023/05/05 06:41:40;;;;;;;;;;;;;;;14.90;42.13;98088.13;5069416;28;19955;-65
2023/05/05 06:44:29;;;;;;;;;;;;;;;15.02;42.15;98092.88;5051045;28;20306;-66
2023/05/05 06:47:18;;;;;;;;;;;;;;;15.26;42.17;98092.13;5053474;28;19947;-66
2023/05/05 06:50:07;;;;;;;;;;;;;;;15.39;41.44;98087.50;5060317;28;19946;-65
2023/05/05 06:52:55;;;;;;;;;;;;;;;15.44;41.44;98092.75;5049616;28;20462;-65
2023/05/05 06:55:46;;;;;;;;;;;;;;;15.53;41.62;98085.25;5076394;28;19967;-65
2023/05/05 06:58:34;;;;;;;;;;;;;;;15.80;41.38;98080.28;5072692;28;20388;-64
2023/05/05 07:01:22;;;;;;;;;;;;;;;15.83;40.90;98083.16;5062410;28;19935;-65
2023/05/05 07:04:11;;;;;;;;;;;;;;;16.05;40.83;98078.38;5071027;28;20039;-62
2023/05/05 07:07:00;;;;;;;;;;;;;;;16.06;40.45;98077.22;5080487;28;20062;-66
2023/05/05 07:09:48;;;;;;;;;;;;;;;16.16;40.93;98077.56;5073805;28;20423;-66
2023/05/05 07:12:38;;;;;;;;;;;;;;;16.28;40.74;98081.44;5078508;28;19968;-66
2023/05/05 07:15:29;;;;;;;;;;;;;;;16.36;40.63;98080.53;5069787;28;20050;-67
2023/05/05 07:18:19;;;;;;;;;;;;;;;16.47;40.68;98078.91;5081321;28;20535;-67
2023/05/05 07:21:10;;;;;;;;;;;;;;;16.57;40.06;98075.69;5083691;28;19934;-66
2023/05/05 07:23:58;;;;;;;;;;;;;;;16.77;40.08;98076.66;5070773;28;20034;-66
2023/05/05 07:26:47;;;;;;;;;;;;;;;16.93;40.16;98073.97;5070824;28;20033;-65
2023/05/05 07:29:36;;;;;;;;;;;;;;;17.00;40.24;98071.47;5085394;28;20000;-65
2023/05/05 07:32:25;;;;;;;;;;;;;;;17.09;40.27;98079.53;5075951;28;20025;-64
2023/05/05 07:35:13;;;;;;;;;;;;;;;17.20;40.32;98075.91;5084700;28;19939;-68
2023/05/05 07:38:01;;;;;;;;;;;;;;;17.24;40.10;98082.31;5084251;28;20025;-64
2023/05/05 07:40:49;;;;;;;;;;;;;;;17.27;40.44;98078.88;5084476;28;19981;-65
2023/05/05 07:43:39;;;;;;;;;;;;;;;17.36;41.17;98081.44;5085518;28;19941;-65
2023/05/05 07:46:30;;;;;;;;;;;;;;;17.44;40.22;98082.44;5077960;28;19957;-66
2023/05/05 07:49:18;;;;;;;;;;;;;;;17.50;40.30;98083.78;5064728;28;19945;-65
2023/05/05 07:52:07;;;;;;;;;;;;;;;17.60;40.42;98086.00;5084879;28;19934;-66
2023/05/05 07:54:55;;;;;;;;;;;;;;;17.78;40.79;98076.28;5085710;28;19935;-65
2023/05/05 07:57:44;;;;;;;;;;;;;;;17.94;40.28;98075.50;5085093;28;20410;-65
2023/05/05 08:00:32;;;;;;;;;;;;;;;18.04;39.94;98073.00;5082550;28;20495;-65
2023/05/05 08:03:24;;;;;;;;;;;;;;;18.14;39.96;98071.66;5082865;28;19941;-64
2023/05/05 08:06:14;;;;;;;;;;;;;;;18.26;40.50;98079.00;5083493;28;19942;-65
2023/05/05 08:09:03;;;;;;;;;;;;;;;18.44;40.59;98073.94;5062837;28;19942;-65
2023/05/05 08:11:51;;;;;;;;;;;;;;;18.56;40.16;98073.78;5073947;28;19951;-64
2023/05/05 08:14:41;;;;;;;;;;;;;;;18.57;40.03;98083.63;5066251;28;20284;-65
2023/05/05 08:17:29;;;;;;;;;;;;;;;18.49;40.51;98084.66;5070587;28;19947;-67
2023/05/05 08:20:19;;;;;;;;;;;;;;;18.51;40.59;98085.88;5082888;28;19920;-65
2023/05/05 08:23:07;;;;;;;;;;;;;;;18.62;40.84;98088.84;5073851;28;20018;-67
2023/05/05 08:25:55;;;;;;;;;;;;;;;18.64;40.91;98089.28;5077778;28;20277;-66
2023/05/05 08:28:45;;;;;;;;;;;;;;;18.78;40.60;98081.38;5061916;28;20289;-65
2023/05/05 08:31:34;;;;;;;;;;;;;;;18.96;40.45;98095.53;5073160;28;19962;-65
2023/05/05 08:34:22;;;;;;;;;;;;;;;18.88;40.84;98085.50;5071657;28;19934;-64
2023/05/05 08:37:12;;;;;;;;;;;;;;;18.87;40.84;98085.88;5076011;28;19941;-66
2023/05/05 08:40:03;;;;;;;;;;;;;;;19.03;41.19;98087.41;5085312;28;19932;-63
2023/05/05 08:42:51;;;;;;;;;;;;;;;19.15;40.74;98072.69;5080527;28;19920;-65
2023/05/05 08:45:40;;;;;;;;;;;;;;;19.30;40.29;98085.56;5082448;28;20123;-65
2023/05/05 08:48:29;;;;;;;;;;;;;;;19.31;40.64;98078.91;5094774;28;19990;-66
2023/05/05 08:51:18;;;;;;;;;;;;;;;19.45;40.37;98089.41;5082401;28;20347;-67
2023/05/05 08:54:08;;;;;;;;;;;;;;;19.63;40.40;98084.22;5083990;28;19954;-63
2023/05/05 08:56:56;;;;;;;;;;;;;;;19.71;39.76;98083.19;5084573;28;19974;-62
2023/05/05 08:59:47;;;;;;;;;;;;;;;19.79;39.89;98086.88;5082373;28;19960;-65
2023/05/05 09:02:38;;;;;;;;;;;;;;;19.75;39.95;98084.03;5077945;28;19920;-64
2023/05/05 09:05:26;;;;;;;;;;;;;;;19.85;39.95;98086.19;5083051;28;20163;-67
2023/05/05 09:08:15;;;;;;;;;;;;;;;19.86;39.87;98092.50;5083004;28;20460;-65
2023/05/05 09:11:05;;;;;;;;;;;;;;;19.78;40.09;98088.81;5083787;28;20019;-63
2023/05/05 09:13:53;;;;;;;;;;;;;;;19.83;40.08;98088.53;5083946;28;19930;-65
2023/05/05 09:16:43;;;;;;;;;;;;;;;19.93;39.61;98091.84;5081868;28;19947;-66
2023/05/05 09:19:33;;;;;;;;;;;;;;;19.96;39.74;98088.31;5083477;28;19924;-65
2023/05/05 09:22:28;;;;;;;;;;;;;;;20.03;40.41;98085.69;5066517;28;19920;-66
2023/05/05 09:25:18;;;;;;;;;;;;;;;20.18;39.75;98070.94;5082690;28;20226;-66
2023/05/05 09:28:11;;;;;;;;;;;;;;;20.33;39.74;98067.25;5080647;28;20383;-64
2023/05/05 09:31:11;;;;;;;;;;;;;;;20.36;39.32;98063.75;5068549;28;19920;-65
2023/05/05 09:34:00;;;;;;;;;;;;;;;20.38;39.92;98055.88;5070547;28;20329;-66
2023/05/05 09:36:49;;;;;;;;;;;;;;;20.48;39.97;98056.44;5084330;28;20003;-66
2023/05/05 09:39:39;;;;;;;;;;;;;;;20.60;39.91;98054.25;5075587;28;19939;-66
2023/05/05 09:42:30;;;;;;;;;;;;;;;20.68;39.99;98052.38;5081972;28;19927;-66
2023/05/05 09:45:26;;;;;;;;;;;;;;;20.90;39.94;98048.72;5083299;28;19920;-65
2023/05/05 09:48:25;;;;;;;;;;;;;;;20.96;39.91;98053.91;5084062;28;19965;-67
2023/05/05 09:51:16;;;;;;;;;;;;;;;20.95;40.01;98047.59;5085246;28;20023;-65
2023/05/05 09:54:05;;;;;;;;;;;;;;;20.95;40.06;98049.56;5084065;28;19928;-65
2023/05/05 09:56:53;;;;;;;;;;;;;;;21.00;40.02;98055.53;5072107;28;20258;-66
2023/05/05 09:59:52;;;;;;;;;;;;;;;20.99;39.98;98051.19;5083222;28;19924;-65
2023/05/05 10:02:42;;;;;;;;;;;;;;;21.04;40.22;98055.56;5085861;28;19924;-65
2023/05/05 10:05:30;;;;;;;;;;;;;;;21.11;40.04;98047.38;5077225;28;20329;-65
2023/05/05 10:08:19;;;;;;;;;;;;;;;21.15;40.14;98056.50;5084045;28;19920;-66
2023/05/05 10:11:08;;;;;;;;;;;;;;;21.24;39.69;98054.22;5077329;28;20671;-65
2023/05/05 10:13:56;;;;;;;;;;;;;;;21.31;39.68;98059.09;5086273;28;19999;-66
2023/05/05 10:16:46;;;;;;;;;;;;;;;21.36;40.06;98050.41;5075721;28;19924;-65
2023/05/05 10:19:36;;;;;;;;;;;;;;;21.47;39.97;98051.34;5080499;28;19954;-63
2023/05/05 10:22:24;;;;;;;;;;;;;;;21.51;39.98;98051.38;5068387;28;19928;-64
2023/05/05 10:25:13;;;;;;;;;;;;;;;21.60;39.67;98051.84;5076608;28;19920;-66
2023/05/05 10:28:01;;;;;;;;;;;;;;;21.75;39.64;98042.53;5073720;28;19927;-68
2023/05/05 10:30:49;;;;;;;;;;;;;;;21.75;39.18;98041.72;5082633;28;20029;-66
2023/05/05 10:33:39;;;;;;;;;;;;;;;22.06;39.03;98032.88;5070982;28;19974;-65
2023/05/05 10:36:30;;;;;;;;;;;;;;;22.18;38.81;98037.34;5083695;28;19920;-65
2023/05/05 10:39:21;;;;;;;;;;;;;;;22.29;38.48;98035.44;5083685;28;20013;-66
2023/05/05 10:42:10;;;;;;;;;;;;;;;22.41;38.80;98029.56;5082446;28;19954;-66
2023/05/05 10:44:58;;;;;;;;;;;;;;;22.51;38.08;98030.03;5068857;28;19924;-69
2023/05/05 10:47:46;;;;;;;;;;;;;;;22.52;38.38;98017.75;5085068;28;19984;-67
2023/05/05 10:50:36;;;;;;;;;;;;;;;22.67;38.34;98016.66;5070541;28;20020;-66
2023/05/05 10:53:25;;;;;;;;;;;;;;;22.80;37.85;98026.22;5084091;28;19938;-66
2023/05/05 10:56:15;;;;;;;;;;;;;;;22.88;37.94;98016.78;5084038;28;20369;-65
2023/05/05 10:59:03;;;;;;;;;;;;;;;22.98;38.07;98012.47;5085813;28;19928;-65
2023/05/05 11:01:52;;;;;;;;;;;;;;;22.94;37.79;98009.66;5076379;28;19998;-66
2023/05/05 11:04:40;;;;;;;;;;;;;;;23.08;38.56;98003.38;5084479;28;19973;-66
2023/05/05 11:07:30;;;;;;;;;;;;;;;23.13;38.27;98004.97;5084389;28;19931;-66
2023/05/05 11:10:21;;;;;;;;;;;;;;;23.26;37.89;97992.31;5086667;28;19937;-66
2023/05/05 11:13:17;;;;;;;;;;;;;;;23.31;37.77;97991.16;5082164;28;19945;-67
2023/05/05 11:16:05;;;;;;;;;;;;;;;23.18;38.19;97977.69;5082646;28;19945;-66
2023/05/05 11:18:54;;;;;;;;;;;;;;;22.95;38.73;97972.47;5088750;28;20411;-71
2023/05/05 11:21:57;;;;;;;;;;;;;;;22.67;39.16;97972.34;5083998;28;19920;-68
2023/05/05 11:24:46;;;;;;;;;;;;;;;22.47;40.07;97958.81;5078739;28;20646;-66
2023/05/05 11:27:49;;;;;;;;;;;;;;;22.52;40.29;97962.38;5084428;28;19935;-66
2023/05/05 11:30:59;;;;;;;;;;;;;;;22.57;40.54;97962.81;5085719;28;19963;-66
2023/05/05 11:33:47;;;;;;;;;;;;;;;22.62;40.43;97959.66;5082722;28;20002;-67
2023/05/05 11:36:39;;;;;;;;;;;;;;;22.70;40.25;97954.97;5074633;28;20458;-66
2023/05/05 11:39:31;;;;;;;;;;;;;;;22.90;39.79;97959.00;5070118;28;19935;-66
2023/05/05 11:42:21;;;;;;;;;;;;;;;23.04;39.38;97958.25;5073682;28;20017;-66
2023/05/05 11:45:19;;;;;;;;;;;;;;;23.16;39.40;97957.06;5073289;28;19939;-68
2023/05/05 11:48:27;;;;;;;;;;;;;;;23.14;39.47;97951.13;5078896;28;19955;-65
2023/05/05 11:51:16;;;;;;;;;;;;;;;23.12;39.49;97948.78;5067645;28;19949;-66
2023/05/05 11:54:04;;;;;;;;;;;;;;;22.91;40.29;97943.97;5074426;28;19931;-66
2023/05/05 11:56:55;;;;;;;;;;;;;;;22.76;40.67;97945.09;5082261;28;19945;-66
2023/05/05 11:59:49;;;;;;;;;;;;;;;22.50;41.19;97946.19;5084732;28;19998;-66
2023/05/05 12:02:38;;;;;;;;;;;;;;;22.22;42.21;97955.94;5092164;28;19931;-68
2023/05/05 12:05:29;;;;;;;;;;;;;;;22.01;42.33;97961.31;5079393;28;19935;-67
2023/05/05 12:08:18;;;;;;;;;;;;;;;21.77;42.96;97964.69;5064517;28;19935;-66
2023/05/05 12:11:07;;;;;;;;;;;;;;;21.53;44.08;97955.84;5064697;28;19960;-64
2023/05/05 12:14:09;;;;;;;;;;;;;;;21.39;44.32;97964.78;5069548;28;20415;-67
2023/05/05 12:16:57;;;;;;;;;;;;;;;21.18;45.34;97961.81;5068896;28;19942;-66
2023/05/05 12:19:46;;;;;;;;;;;;;;;21.10;45.65;97968.44;5081104;28;19963;-65
2023/05/05 12:22:36;;;;;;;;;;;;;;;21.09;45.61;97964.06;5087195;28;20497;-66
2023/05/05 12:25:25;;;;;;;;;;;;;;;21.06;45.31;97973.13;5074056;28;19957;-64
2023/05/05 12:28:15;;;;;;;;;;;;;;;20.98;46.01;97968.69;5076364;28;19935;-65
2023/05/05 12:31:03;;;;;;;;;;;;;;;20.96;46.81;97965.53;5078827;28;20556;-66
2023/05/05 12:33:52;;;;;;;;;;;;;;;20.97;47.15;97967.13;5079759;28;20354;-66
2023/05/05 12:36:40;;;;;;;;;;;;;;;20.98;47.05;97963.19;5080256;28;19950;-65
2023/05/05 12:39:36;;;;;;;;;;;;;;;21.02;46.77;97964.00;5073916;28;20371;-69
2023/05/05 12:42:24;;;;;;;;;;;;;;;21.19;46.59;97960.63;5071278;28;20047;-66
2023/05/05 12:45:16;;;;;;;;;;;;;;;21.43;46.35;97964.84;5066206;28;20031;-66
2023/05/05 12:48:19;;;;;;;;;;;;;;;21.58;45.38;97963.78;5077264;28;19974;-64
2023/05/05 12:51:14;;;;;;;;;;;;;;;21.78;48.69;97966.28;5080583;28;19973;-65
2023/05/05 12:54:03;;;;;;;;;;;;;;;21.86;50.27;97965.97;5083222;28;19934;-66
2023/05/05 12:56:55;;;;;;;;;;;;;;;21.91;50.74;97951.78;5084029;28;20307;-65
2023/05/05 12:59:45;;;;;;;;;;;;;;;21.86;50.97;97956.88;5083055;28;19958;-66
2023/05/05 13:02:33;;;;;;;;;;;;;;;21.81;50.42;97957.22;5070904;28;19924;-66
2023/05/05 13:05:31;;;;;;;;;;;;;;;21.86;49.60;97952.13;5083250;28;19949;-66
2023/05/05 13:08:19;;;;;;;;;;;;;;;21.81;49.76;97952.50;5082757;28;19995;-66
2023/05/05 13:11:08;;;;;;;;;;;;;;;21.85;49.18;97955.28;5082881;28;19934;-65
2023/05/05 13:13:58;;;;;;;;;;;;;;;22.00;48.60;97953.38;5076507;28;19942;-65
2023/05/05 13:16:46;;;;;;;;;;;;;;;22.13;48.55;97951.94;5080417;28;19943;-65
2023/05/05 13:19:40;;;;;;;;;;;;;;;22.22;48.43;97949.63;5073660;28;20011;-67
2023/05/05 13:22:29;;;;;;;;;;;;;;;22.32;48.33;97950.81;5081195;28;19934;-67
2023/05/05 13:25:17;;;;;;;;;;;;;;;22.37;48.62;97953.22;5074655;28;19920;-66
2023/05/05 13:28:06;;;;;;;;;;;;;;;22.42;47.66;97950.88;5084062;28;19939;-68
2023/05/05 13:30:57;;;;;;;;;;;;;;;22.29;47.87;97944.09;5083463;28;20188;-67
2023/05/05 13:33:45;;;;;;;;;;;;;;;22.11;48.13;97940.47;5079165;28;19974;-67
2023/05/05 13:36:34;;;;;;;;;;;;;;;21.88;48.16;97935.94;5074077;28;20376;-66
2023/05/05 13:39:22;;;;;;;;;;;;;;;21.71;48.75;97939.38;5077835;28;19920;-68
2023/05/05 13:42:13;;;;;;;;;;;;;;;21.49;49.73;97938.44;5069913;28;20033;-66
2023/05/05 13:45:01;;;;;;;;;;;;;;;21.31;50.25;97938.28;5079750;28;19996;-65
2023/05/05 13:47:51;;;;;;;;;;;;;;;21.15;50.12;97938.50;5069654;28;20568;-66
2023/05/05 13:50:40;;;;;;;;;;;;;;;21.03;48.64;97933.25;5071487;28;19964;-66
2023/05/05 13:53:28;;;;;;;;;;;;;;;20.91;47.13;97934.31;5081480;28;19957;-68
2023/05/05 13:56:17;;;;;;;;;;;;;;;20.83;46.06;97929.13;5077509;28;20104;-66
2023/05/05 13:59:09;;;;;;;;;;;;;;;20.81;44.77;97926.72;5073034;28;19928;-66
2023/05/05 14:01:57;;;;;;;;;;;;;;;20.70;44.89;97925.81;5079654;28;19935;-69
2023/05/05 14:04:47;;;;;;;;;;;;;;;20.67;44.22;97926.56;5068170;28;19967;-66
2023/05/05 14:07:35;;;;;;;;;;;;;;;20.71;43.40;97930.16;5081663;28;20439;-66
2023/05/05 14:10:25;;;;;;;;;;;;;;;20.70;44.09;97920.28;5075002;28;19932;-66
2023/05/05 14:13:14;;;;;;;;;;;;;;;20.73;44.48;97918.75;5091663;28;19927;-66
2023/05/05 14:16:02;;;;;;;;;;;;;;;20.74;44.05;97920.34;5078611;28;19920;-68
2023/05/05 14:18:51;;;;;;;;;;;;;;;20.67;44.27;97921.84;5062940;28;19974;-66
2023/05/05 14:21:40;;;;;;;;;;;;;;;20.68;45.65;97911.59;5050925;28;20377;-66
2023/05/05 14:24:28;;;;;;;;;;;;;;;20.64;51.67;97905.22;5060552;28;19924;-64
2023/05/05 14:27:17;;;;;;;;;;;;;;;20.58;56.33;97902.03;5062655;28;19978;-65
2023/05/05 14:30:06;;;;;;;;;;;;;;;20.52;57.62;97900.78;5060999;28;19932;-65
2023/05/05 14:32:55;;;;;;;;;;;;;;;20.57;60.05;97900.44;5062996;28;20047;-67
2023/05/05 14:35:43;;;;;;;;;;;;;;;20.55;60.29;97900.00;5057481;28;19921;-66
2023/05/05 14:38:34;;;;;;;;;;;;;;;20.51;60.64;97903.91;5066649;28;19927;-67
2023/05/05 14:41:23;;;;;;;;;;;;;;;20.44;61.11;97907.34;5066404;28;19928;-67
2023/05/05 14:44:11;;;;;;;;;;;;;;;20.36;59.80;97903.72;5064729;28;19920;-67